Allison, Texas
Current Conditions -  °F | °C
As of 10:35 PM on Saturday 25 Oct 2014 (Local Time) from KHHF Reporting Station
Clear Clear  
Wind Chill: 74°   Ceiling: Unl
Heat Index: 74°   Visibility: 10mi
Dew Point: 52°   Wind: 15mph
Humidity: 46%   Direction: 200°SSW
Pressure: 29.99"   Gusts: NA
Location:  35.61°N, 100.1°W
Report Text: KHHF 260335Z AUTO 20013KT 10SM CLR 23/11 A2999 RMK AO2 T02320109
Loading
Personal Weather Stations






























Interactive Weather Map
Tropical Storm Tracking
New forecast layout! Learn more

10-Day Weather Forecast

Advertisements
Track Severe Weather on mobile